Amelia Island, Florida
Current Conditions -  °F | °C
As of 2:55 AM on Saturday 20 Dec 2014 (Local Time) from KFHB Reporting Station
Scattered Clouds Scattered Clouds  
Wind Chill: 59°   Ceiling: Unl
Heat Index: 59°   Visibility: 10mi
Dew Point: 55°   Wind: 5mph
Humidity: 88%   Direction: 350°N
Pressure: 30.1"   Gusts: NA
Location:  30.6056°N, 81.5268°W
Report Text: KFHB 200755Z AUTO 35004KT 10SM SCT090 SCT120 15/13 A3010 RMK AO1
Loading
Personal Weather Stations






























Interactive Weather Map New forecast layout! Learn more

10-Day Weather Forecast

Advertisements
Track Severe Weather on mobile